createdAt,value
2022-08-05T00:02:22.244Z,100235.09
2022-08-05T00:04:55.165Z,100236.72
2022-08-05T00:07:59.068Z,100228.69
2022-08-05T00:10:10.668Z,100227.13
2022-08-05T00:12:48.454Z,100226.47
2022-08-05T00:15:56.413Z,100237.59
2022-08-05T00:18:21.776Z,100230.19
2022-08-05T00:20:50.615Z,100230.78
2022-08-05T00:23:17.883Z,100228.03
2022-08-05T00:26:05.118Z,100229.38
2022-08-05T00:28:32.957Z,100230.13
2022-08-05T00:31:04.248Z,100228.66
2022-08-05T00:34:56.562Z,100228.72
2022-08-05T00:37:11.836Z,100220.81
2022-08-05T00:39:13.751Z,100222.84
2022-08-05T00:41:51.460Z,100225.19
2022-08-05T00:44:19.183Z,100228.78
2022-08-05T00:46:47.723Z,100224.88
2022-08-05T00:49:21.144Z,100224.19
2022-08-05T00:51:51.992Z,100222.75
2022-08-05T00:54:19.129Z,100218.12
2022-08-05T00:56:51.404Z,100217.06
2022-08-05T00:59:18.439Z,100218.62
2022-08-05T01:01:48.718Z,100216.03
2022-08-05T01:04:16.116Z,100215.66
2022-08-05T01:06:48.571Z,100210.91
2022-08-05T01:09:17.294Z,100214.75
2022-08-05T01:11:49.955Z,100219.28
2022-08-05T01:14:27.788Z,100214.69
2022-08-05T01:17:02.698Z,100216.63
2022-08-05T01:20:01.940Z,100217.78
2022-08-05T01:22:38.309Z,100210.37
2022-08-05T01:25:40.866Z,100213.87
2022-08-05T01:28:16.867Z,100217.63
2022-08-05T01:30:55.375Z,100215.66
2022-08-05T01:33:35.337Z,100219.50
2022-08-05T01:36:12.850Z,100215.44
2022-08-05T01:38:46.281Z,100216.94
2022-08-05T01:41:18.466Z,100220.84
2022-08-05T01:43:51.107Z,100216.09
2022-08-05T01:46:43.161Z,100218.09
2022-08-05T01:49:23.011Z,100222.12
2022-08-05T01:51:56.547Z,100210.00
2022-08-05T01:54:30.188Z,100216.09
2022-08-05T01:58:12.973Z,100219.59
2022-08-05T01:59:48.487Z,100223.31
2022-08-05T02:02:17.917Z,100222.94
2022-08-05T02:04:49.615Z,100225.78
2022-08-05T02:07:22.098Z,100216.06
2022-08-05T02:09:51.008Z,100219.25
2022-08-05T02:12:36.147Z,100215.34
2022-08-05T02:15:34.080Z,100213.53
2022-08-05T02:18:31.053Z,100207.25
2022-08-05T02:21:03.678Z,100210.28
2022-08-05T02:23:38.115Z,100211.84
2022-08-05T02:26:09.458Z,100210.78
2022-08-05T02:28:46.048Z,100205.91
2022-08-05T02:31:21.205Z,100217.41
2022-08-05T02:33:57.224Z,100210.78
2022-08-05T02:36:27.564Z,100211.72
2022-08-05T02:38:58.775Z,100206.53
2022-08-05T02:41:28.583Z,100203.53
2022-08-05T02:44:13.327Z,100201.25
2022-08-05T02:46:58.563Z,100203.69
2022-08-05T02:49:35.955Z,100197.47
2022-08-05T02:52:08.025Z,100201.91
2022-08-05T02:54:37.456Z,100205.22
2022-08-05T02:57:10.290Z,100199.81
2022-08-05T02:59:55.496Z,100197.13
2022-08-05T03:02:27.644Z,100195.72
2022-08-05T03:04:57.588Z,100200.72
2022-08-05T03:08:00.647Z,100203.44
2022-08-05T03:10:16.096Z,100195.94
2022-08-05T03:12:52.546Z,100199.78
2022-08-05T03:15:20.794Z,100200.63
2022-08-05T03:17:49.936Z,100199.87
2022-08-05T03:20:21.266Z,100208.34
2022-08-05T03:22:50.476Z,100205.41
2022-08-05T03:25:32.612Z,100210.78
2022-08-05T03:28:02.561Z,100202.94
2022-08-05T03:30:35.015Z,100208.41
2022-08-05T03:33:03.936Z,100203.84
2022-08-05T03:35:41.269Z,100208.81
2022-08-05T03:38:11.731Z,100207.91
2022-08-05T03:40:48.572Z,100208.84
2022-08-05T03:44:09.598Z,100209.50
2022-08-05T03:46:04.630Z,100213.41
2022-08-05T03:48:35.637Z,100208.41
2022-08-05T03:52:38.246Z,100198.06
2022-08-05T03:55:52.581Z,100207.25
2022-08-05T03:57:22.016Z,100205.38
2022-08-05T04:00:11.057Z,100202.19
2022-08-05T04:02:45.219Z,100207.31
2022-08-05T04:05:26.068Z,100203.78
2022-08-05T04:07:58.610Z,100204.38
2022-08-05T04:10:31.958Z,100204.16
2022-08-05T04:13:00.648Z,100208.53
2022-08-05T04:15:33.141Z,100204.66
2022-08-05T04:18:06.655Z,100201.38
2022-08-05T04:20:34.379Z,100205.19
2022-08-05T04:23:01.747Z,100196.66
2022-08-05T04:25:58.047Z,100203.22
2022-08-05T04:28:15.447Z,100196.72
2022-08-05T04:30:44.434Z,100192.19
2022-08-05T04:33:12.674Z,100192.97
2022-08-05T04:36:15.723Z,100186.84
2022-08-05T04:38:39.926Z,100189.34
2022-08-05T04:41:10.087Z,100198.59
2022-08-05T04:43:48.214Z,100193.37
2022-08-05T04:46:27.837Z,100182.13
2022-08-05T04:48:58.006Z,100186.22
2022-08-05T04:51:25.757Z,100175.87
2022-08-05T04:53:57.196Z,100187.16
2022-08-05T04:56:34.467Z,100179.16
2022-08-05T04:59:22.117Z,100172.44
2022-08-05T05:02:07.136Z,100183.34
2022-08-05T05:04:35.292Z,100185.66
2022-08-05T05:07:05.318Z,100187.88
2022-08-05T05:09:37.476Z,100180.28
2022-08-05T05:12:06.263Z,100180.59
2022-08-05T05:14:33.296Z,100176.22
2022-08-05T05:17:03.708Z,100171.97
2022-08-05T05:19:36.992Z,100180.91
2022-08-05T05:22:22.936Z,100171.00
2022-08-05T05:24:57.373Z,100179.59
2022-08-05T05:27:45.867Z,100175.41
2022-08-05T05:30:29.751Z,100175.00
2022-08-05T05:33:00.446Z,100174.28
2022-08-05T05:35:34.244Z,100177.34
2022-08-05T05:38:09.150Z,100169.66
2022-08-05T05:40:42.527Z,100173.84
2022-08-05T05:43:15.172Z,100178.16
2022-08-05T05:45:49.577Z,100187.81
2022-08-05T05:48:16.504Z,100183.78
2022-08-05T05:50:44.535Z,100176.66
2022-08-05T05:53:22.247Z,100179.69
2022-08-05T05:55:51.549Z,100176.91
2022-08-05T05:58:31.568Z,100177.66
2022-08-05T06:01:02.575Z,100175.66
2022-08-05T06:04:01.100Z,100175.97
2022-08-05T06:06:31.190Z,100175.41
2022-08-05T06:09:00.572Z,100173.72
2022-08-05T06:11:29.022Z,100175.63
2022-08-05T06:13:56.930Z,100171.66
2022-08-05T06:16:28.692Z,100173.63
2022-08-05T06:19:01.839Z,100168.41
2022-08-05T06:21:37.105Z,100163.66
2022-08-05T06:24:11.750Z,100170.09
2022-08-05T06:26:51.703Z,100163.88
2022-08-05T06:29:25.364Z,100170.72
2022-08-05T06:32:06.028Z,100170.03
2022-08-05T06:34:53.419Z,100172.06
2022-08-05T06:37:57.083Z,100175.81
2022-08-05T06:40:08.296Z,100163.84
2022-08-05T06:42:35.176Z,100177.06
2022-08-05T06:45:05.524Z,100171.16
2022-08-05T06:48:36.174Z,100175.41
2022-08-05T06:50:22.450Z,100173.97
2022-08-05T06:52:58.770Z,100173.22
2022-08-05T06:55:36.216Z,100170.38
2022-08-05T06:58:20.274Z,100176.44
2022-08-05T07:00:51.841Z,100172.69
2022-08-05T07:03:19.338Z,100165.59
2022-08-05T07:05:46.562Z,100169.16
2022-08-05T07:08:13.685Z,100168.81
2022-08-05T07:10:52.977Z,100172.25
2022-08-05T07:13:57.668Z,100167.25
2022-08-05T07:18:01.492Z,100176.94
2022-08-05T07:20:31.286Z,100164.31
2022-08-05T07:22:30.152Z,100168.59
2022-08-05T07:25:22.994Z,100168.06
2022-08-05T07:27:58.585Z,100163.72
2022-08-05T07:30:39.854Z,100161.28
2022-08-05T07:33:16.087Z,100162.31
2022-08-05T07:36:05.298Z,100163.13
2022-08-05T07:38:33.977Z,100162.63
2022-08-05T07:42:08.288Z,100159.88
2022-08-05T07:43:58.486Z,100152.78
2022-08-05T07:46:27.337Z,100153.69
2022-08-05T07:49:02.568Z,100149.59
2022-08-05T07:51:37.044Z,100156.06
2022-08-05T07:54:08.507Z,100147.78
2022-08-05T07:57:02.612Z,100155.25
2022-08-05T07:59:38.202Z,100149.91
2022-08-05T08:02:16.231Z,100152.09
2022-08-05T08:04:48.661Z,100154.84
2022-08-05T08:07:22.715Z,100148.16
2022-08-05T08:09:52.428Z,100150.09
2022-08-05T08:12:37.547Z,100145.81
2022-08-05T08:15:15.438Z,100134.12
2022-08-05T08:17:50.721Z,100148.19
2022-08-05T08:27:13.761Z,100144.16
2022-08-05T08:30:05.639Z,100142.03
2022-08-05T08:32:39.855Z,100143.69
2022-08-05T08:35:13.399Z,100134.09
2022-08-05T08:37:47.087Z,100134.12
2022-08-05T08:40:20.586Z,100139.31
2022-08-05T08:42:52.755Z,100135.63
2022-08-05T08:45:26.685Z,100135.03
2022-08-05T08:48:10.497Z,100137.84
2022-08-05T08:51:22.350Z,100132.75
2022-08-05T08:53:40.343Z,100138.91
2022-08-05T08:56:12.056Z,100131.00
2022-08-05T08:58:44.392Z,100128.44
2022-08-05T09:01:16.876Z,100123.09
2022-08-05T09:03:57.219Z,100124.50
2022-08-05T09:06:28.538Z,100121.66
2022-08-05T09:08:59.388Z,100115.16
2022-08-05T09:11:52.141Z,100108.72
2022-08-05T09:14:56.768Z,100110.06
2022-08-05T09:17:08.187Z,100108.97
2022-08-05T09:19:55.119Z,100116.72
2022-08-05T09:22:31.798Z,100120.56
2022-08-05T09:25:23.858Z,100118.87
2022-08-05T09:28:04.272Z,100114.00
2022-08-05T09:30:34.498Z,100106.22
2022-08-05T09:33:02.692Z,100108.69
2022-08-05T09:35:32.798Z,100099.53
2022-08-05T09:38:12.093Z,100100.12
2022-08-05T09:40:53.540Z,100092.50
2022-08-05T09:43:40.950Z,100092.34
2022-08-05T09:46:27.569Z,100097.91
2022-08-05T09:49:08.226Z,100091.50
2022-08-05T09:51:49.366Z,100091.75
2022-08-05T09:54:29.008Z,100080.53
2022-08-05T09:56:57.680Z,100077.19
2022-08-05T09:59:29.221Z,100084.63
2022-08-05T10:02:02.393Z,100082.06
2022-08-05T10:04:38.532Z,100078.09
2022-08-05T10:07:20.082Z,100081.91
2022-08-05T10:10:04.422Z,100076.53
2022-08-05T10:12:50.823Z,100073.25
2022-08-05T10:15:44.196Z,100076.91
2022-08-05T10:18:22.728Z,100076.09
2022-08-05T10:20:54.636Z,100076.34
2022-08-05T10:23:55.289Z,100062.38
2022-08-05T10:26:15.207Z,100060.19
2022-08-05T10:28:46.923Z,100057.75
2022-08-05T10:32:52.798Z,100057.84
2022-08-05T10:34:03.747Z,100055.06
2022-08-05T10:36:36.548Z,100046.44
2022-08-05T10:39:10.266Z,100044.63
2022-08-05T10:42:11.318Z,100049.84
2022-08-05T10:44:43.534Z,100034.78
2022-08-05T10:47:26.930Z,100042.09
2022-08-05T10:50:33.285Z,100039.69
2022-08-05T10:53:00.168Z,100038.19
2022-08-05T10:55:28.087Z,100047.88
2022-08-05T10:58:15.578Z,100035.03
2022-08-05T11:00:48.563Z,100025.69
2022-08-05T11:03:24.982Z,100030.56
2022-08-05T11:06:15.032Z,100028.13
2022-08-05T11:09:18.596Z,100029.28
2022-08-05T11:11:54.080Z,100022.00
2022-08-05T11:17:58.651Z,100025.44
2022-08-05T11:20:33.447Z,100027.09
2022-08-05T11:23:05.748Z,100026.94
2022-08-05T11:26:05.751Z,100015.47
2022-08-05T11:28:36.248Z,100018.00
2022-08-05T11:31:06.295Z,100017.66
2022-08-05T11:33:57.295Z,100009.87
2022-08-05T11:36:47.396Z,100014.13
2022-08-05T11:39:49.250Z,100003.81
2022-08-05T11:42:28.024Z,100003.84
2022-08-05T11:45:05.658Z,100001.53
2022-08-05T11:47:48.503Z,99999.63
2022-08-05T11:50:18.286Z,100004.69
2022-08-05T11:52:48.383Z,100009.94
2022-08-05T11:55:17.055Z,100007.19
2022-08-05T11:58:10.719Z,100006.63
2022-08-05T12:00:38.180Z,100003.31
2022-08-05T12:03:29.105Z,100013.50
2022-08-05T12:06:06.702Z,100010.66
2022-08-05T12:08:51.140Z,100016.66
2022-08-05T12:11:28.275Z,100016.34
2022-08-05T12:14:11.458Z,100017.59
2022-08-05T12:16:40.717Z,100023.56
2022-08-05T12:20:26.796Z,100017.91
2022-08-05T12:22:01.135Z,100018.50
2022-08-05T12:24:28.604Z,100010.72
2022-08-05T12:26:57.136Z,100010.63
2022-08-05T12:29:26.718Z,100007.63
2022-08-05T12:32:02.070Z,100003.53
2022-08-05T12:34:32.337Z,100004.91
2022-08-05T12:37:17.051Z,100001.09
2022-08-05T12:39:51.270Z,99998.03
2022-08-05T12:42:21.010Z,99995.50
2022-08-05T12:44:48.359Z,99989.03
2022-08-05T12:47:28.622Z,99985.28
2022-08-05T12:50:04.009Z,99985.16
2022-08-05T12:52:39.760Z,99980.47
2022-08-05T12:55:22.100Z,99975.03
2022-08-05T12:58:50.750Z,99979.63
2022-08-05T13:02:02.674Z,99977.16
2022-08-05T13:03:32.603Z,99971.34
2022-08-05T13:06:01.399Z,99977.87
2022-08-05T13:08:32.447Z,99975.50
2022-08-05T13:11:02.426Z,99968.63
2022-08-05T13:14:06.835Z,99960.31
2022-08-05T13:16:20.317Z,99961.84
2022-08-05T13:18:58.368Z,99965.53
2022-08-05T13:21:27.821Z,99954.63
2022-08-05T13:23:55.837Z,99952.78
2022-08-05T13:26:30.077Z,99956.88
2022-08-05T13:28:59.216Z,99947.31
2022-08-05T13:32:02.872Z,99945.75
2022-08-05T13:34:24.851Z,99940.34
2022-08-05T13:36:54.261Z,99946.84
2022-08-05T13:40:13.067Z,99942.44
2022-08-05T13:42:14.681Z,99939.50
2022-08-05T13:44:45.713Z,99943.25
2022-08-05T13:47:35.447Z,99936.12
2022-08-05T13:50:04.631Z,99926.00
2022-08-05T13:52:35.593Z,99924.19
2022-08-05T13:55:07.730Z,99927.88
2022-08-05T13:57:51.506Z,99922.25
2022-08-05T14:00:26.809Z,99926.28
2022-08-05T14:02:57.010Z,99925.72
2022-08-05T14:05:48.230Z,99909.69
2022-08-05T14:08:21.403Z,99915.72
2022-08-05T14:11:03.354Z,99906.88
2022-08-05T14:13:41.682Z,99913.00
2022-08-05T14:16:11.498Z,99909.47
2022-08-05T14:18:43.477Z,99897.06
2022-08-05T14:22:08.435Z,99891.25
2022-08-05T14:23:57.326Z,99892.53
2022-08-05T14:26:38.439Z,99892.47
2022-08-05T14:29:16.180Z,99890.19
2022-08-05T14:32:02.910Z,99887.84
2022-08-05T14:34:35.031Z,99887.50
2022-08-05T14:37:02.557Z,99883.50
2022-08-05T14:39:29.690Z,99889.53
2022-08-05T14:42:19.140Z,99880.19
2022-08-05T14:44:45.891Z,99881.06
2022-08-05T14:47:12.716Z,99876.69
2022-08-05T14:49:59.621Z,99877.63
2022-08-05T14:52:52.069Z,99875.34
2022-08-05T14:55:15.393Z,99874.38
2022-08-05T14:57:56.335Z,99873.31
2022-08-05T15:00:28.006Z,99867.41
2022-08-05T15:02:55.843Z,99866.69
2022-08-05T15:05:30.077Z,99865.84
2022-08-05T15:08:16.043Z,99855.09
2022-08-05T15:10:46.053Z,99873.53
2022-08-05T15:13:14.105Z,99867.62
2022-08-05T15:15:55.880Z,99862.84
2022-08-05T15:18:23.509Z,99867.50
2022-08-05T15:20:50.327Z,99862.25
2022-08-05T15:23:18.308Z,99866.00
2022-08-05T15:25:53.278Z,99856.72
2022-08-05T15:28:27.221Z,99860.31
2022-08-05T15:30:55.281Z,99862.13
2022-08-05T15:34:05.539Z,99864.16
2022-08-05T15:36:17.301Z,99863.87
2022-08-05T15:40:58.697Z,99863.03
2022-08-05T15:41:57.218Z,99872.25
2022-08-05T15:44:27.635Z,99869.78
2022-08-05T15:46:55.764Z,99868.31
2022-08-05T15:49:40.880Z,99867.06
2022-08-05T15:52:16.385Z,99867.03
2022-08-05T15:54:44.183Z,99862.91
2022-08-05T15:57:11.206Z,99868.03
2022-08-05T15:59:39.608Z,99866.94
2022-08-05T16:02:09.794Z,99865.31
2022-08-05T16:04:42.816Z,99868.16
2022-08-05T16:07:10.950Z,99870.09
2022-08-05T16:09:38.102Z,99862.41
2022-08-05T16:12:09.207Z,99855.38
2022-08-05T16:14:38.186Z,99862.03
2022-08-05T16:17:05.174Z,99857.06
2022-08-05T16:20:04.987Z,99866.91
2022-08-05T16:22:27.470Z,99872.50
2022-08-05T16:25:00.630Z,99868.72
2022-08-05T16:27:47.089Z,99858.69
2022-08-05T16:30:25.468Z,99867.22
2022-08-05T16:32:53.441Z,99862.81
2022-08-05T16:35:20.247Z,99859.47
2022-08-05T16:38:16.456Z,99863.50
2022-08-05T16:40:42.931Z,99860.19
2022-08-05T16:43:19.077Z,99864.69
2022-08-05T16:46:07.856Z,99858.31
2022-08-05T16:48:35.349Z,99864.91
2022-08-05T16:51:08.673Z,99864.69
2022-08-05T16:54:05.421Z,99862.38
2022-08-05T16:56:30.096Z,99862.34
2022-08-05T16:58:58.206Z,99856.63
2022-08-05T17:01:25.684Z,99859.16
2022-08-05T17:03:52.558Z,99859.13
2022-08-05T17:06:20.158Z,99863.50
2022-08-05T17:08:53.304Z,99862.28
2022-08-05T17:11:23.502Z,99859.97
2022-08-05T17:14:00.162Z,99866.69
2022-08-05T17:16:33.470Z,99856.69
2022-08-05T17:19:01.209Z,99862.50
2022-08-05T17:21:35.671Z,99856.66
2022-08-05T17:24:19.522Z,99863.87
2022-08-05T17:26:56.657Z,99861.66
2022-08-05T17:29:33.339Z,99856.22
2022-08-05T17:32:01.161Z,99859.03
2022-08-05T17:34:30.055Z,99864.06
2022-08-05T17:36:59.494Z,99862.88
2022-08-05T17:39:33.515Z,99865.41
2022-08-05T17:42:18.956Z,99864.09
2022-08-05T17:44:50.545Z,99869.91
2022-08-05T17:47:21.910Z,99877.06
2022-08-05T17:49:51.981Z,99879.75
2022-08-05T17:52:30.680Z,99888.28
2022-08-05T17:54:58.118Z,99877.53
2022-08-05T17:57:24.958Z,99876.12
2022-08-05T18:00:04.773Z,99885.28
2022-08-05T18:02:36.407Z,99881.50
2022-08-05T18:05:07.670Z,99894.22
2022-08-05T18:07:41.737Z,99886.84
2022-08-05T18:10:11.530Z,99893.41
2022-08-05T18:12:40.967Z,99894.69
2022-08-05T18:15:08.766Z,99892.44
2022-08-05T18:18:01.211Z,99893.31
2022-08-05T18:20:29.246Z,99902.78
2022-08-05T18:23:04.901Z,99904.69
2022-08-05T18:25:39.227Z,99899.38
2022-08-05T18:28:07.049Z,99904.50
2022-08-05T18:30:40.189Z,99901.25
2022-08-05T18:33:08.620Z,99904.38
2022-08-05T18:36:00.723Z,99901.16
2022-08-05T18:38:29.078Z,99909.56
2022-08-05T18:41:57.469Z,99918.28
2022-08-05T18:43:48.633Z,99914.72
2022-08-05T18:46:19.834Z,99912.50
2022-08-05T18:48:52.667Z,99909.25
2022-08-05T18:52:02.621Z,99916.19
2022-08-05T18:54:31.192Z,99918.13
2022-08-05T18:57:00.901Z,99920.06
2022-08-05T18:59:43.466Z,99920.75
2022-08-05T19:02:28.616Z,99917.06
2022-08-05T19:05:02.847Z,99929.25
2022-08-05T19:07:46.575Z,99927.19
2022-08-05T19:10:15.158Z,99926.72
2022-08-05T19:12:43.289Z,99925.37
2022-08-05T19:15:58.351Z,99918.72
2022-08-05T19:18:10.342Z,99930.81
2022-08-05T19:20:41.549Z,99925.37
2022-08-05T19:24:03.251Z,99932.78
2022-08-05T19:26:02.949Z,99929.00
2022-08-05T19:28:33.127Z,99925.47
2022-08-05T19:31:01.209Z,99933.72
2022-08-05T19:33:35.695Z,99935.34
2022-08-05T19:36:06.767Z,99934.97
2022-08-05T19:38:35.615Z,99941.31
2022-08-05T19:41:07.251Z,99938.47
2022-08-05T19:44:06.101Z,99945.91
2022-08-05T19:46:29.981Z,99936.78
2022-08-05T19:49:03.474Z,99930.13
2022-08-05T19:52:05.179Z,99938.09
2022-08-05T19:54:29.667Z,99937.63
2022-08-05T19:56:59.819Z,99942.88
2022-08-05T19:59:56.297Z,99954.75
2022-08-05T20:02:17.618Z,99944.78
2022-08-05T20:04:46.061Z,99952.81
2022-08-05T20:07:14.105Z,99952.69
2022-08-05T20:09:54.490Z,99958.62
2022-08-05T20:12:24.779Z,99955.41
2022-08-05T20:14:53.248Z,99952.12
2022-08-05T20:17:23.700Z,99955.09
2022-08-05T20:19:57.058Z,99962.94
2022-08-05T20:22:26.999Z,99958.94
2022-08-05T20:24:54.784Z,99960.25
2022-08-05T20:27:26.910Z,99960.09
2022-08-05T20:29:58.211Z,99956.81
2022-08-05T20:32:27.278Z,99957.28
2022-08-05T20:34:54.363Z,99959.09
2022-08-05T20:38:04.721Z,99958.41
2022-08-05T20:40:09.444Z,99956.37
2022-08-05T20:42:36.437Z,99958.66
2022-08-05T20:45:04.333Z,99951.84
2022-08-05T20:47:32.733Z,99958.13
2022-08-05T20:50:02.033Z,99957.53
2022-08-05T20:52:29.941Z,99953.47
2022-08-05T20:55:54.306Z,99964.88
2022-08-05T20:57:45.014Z,99961.38
2022-08-05T21:00:40.743Z,99962.00
2022-08-05T21:03:07.064Z,99959.91
2022-08-05T21:05:47.791Z,99962.22
2022-08-05T21:08:32.910Z,99966.81
2022-08-05T21:11:12.135Z,99970.28
2022-08-05T21:13:56.380Z,99967.62
2022-08-05T21:16:30.134Z,99972.25
2022-08-05T21:19:00.011Z,99965.75
2022-08-05T21:21:43.870Z,99973.13
2022-08-05T21:24:12.682Z,99970.41
2022-08-05T21:26:41.420Z,99970.41
2022-08-05T21:29:10.080Z,99969.69
2022-08-05T21:31:41.158Z,99969.34
2022-08-05T21:34:10.576Z,99964.28
2022-08-05T21:36:38.057Z,99965.34
2022-08-05T21:39:05.210Z,99963.44
2022-08-05T21:41:35.465Z,99972.59
2022-08-05T21:44:04.072Z,99974.28
2022-08-05T21:46:34.461Z,99970.19
2022-08-05T21:49:07.760Z,99982.84
2022-08-05T21:52:22.856Z,99973.41
2022-08-05T21:54:28.036Z,99976.81
2022-08-05T21:57:29.257Z,99979.00
2022-08-05T22:00:02.077Z,99974.38
2022-08-05T22:02:31.789Z,99974.22
2022-08-05T22:04:58.814Z,99981.44
2022-08-05T22:07:40.144Z,99987.03
2022-08-05T22:10:14.810Z,99984.91
2022-08-05T22:12:45.019Z,99985.16
2022-08-05T22:15:56.425Z,99982.50
2022-08-05T22:18:05.958Z,99989.38
2022-08-05T22:20:32.942Z,99989.47
2022-08-05T22:23:21.540Z,99988.38
2022-08-05T22:26:10.573Z,99990.31
2022-08-05T22:28:38.890Z,99995.44
2022-08-05T22:31:06.262Z,99994.50
2022-08-05T22:33:57.106Z,99988.34
2022-08-05T22:36:23.783Z,99988.59
2022-08-05T22:38:52.141Z,99995.00
2022-08-05T22:42:05.058Z,99995.13
2022-08-05T22:44:08.534Z,100000.13
2022-08-05T22:46:39.854Z,99997.94
2022-08-05T22:49:23.621Z,99999.41
2022-08-05T22:52:05.910Z,100001.88
2022-08-05T22:54:37.622Z,99993.87
2022-08-05T22:57:06.866Z,100000.00
2022-08-05T22:59:46.500Z,99997.16
2022-08-05T23:02:18.169Z,100000.31
2022-08-05T23:04:51.531Z,99996.84
2022-08-05T23:07:22.024Z,100000.63
2022-08-05T23:09:57.728Z,100002.97
2022-08-05T23:12:32.374Z,99993.87
2022-08-05T23:15:03.146Z,100005.16
2022-08-05T23:17:32.860Z,100001.72
2022-08-05T23:20:15.497Z,100003.37
2022-08-05T23:22:44.020Z,100008.84
2022-08-05T23:25:17.673Z,100009.53
2022-08-05T23:28:01.766Z,100004.88
2022-08-05T23:30:29.245Z,100010.78
2022-08-05T23:32:58.088Z,100008.59
2022-08-05T23:35:28.601Z,100003.31
2022-08-05T23:38:01.319Z,100006.37
2022-08-05T23:40:28.138Z,100003.94
2022-08-05T23:42:54.968Z,99995.19
2022-08-05T23:45:23.749Z,99996.97
2022-08-05T23:47:53.903Z,99991.72
2022-08-05T23:50:26.608Z,99993.31
2022-08-05T23:52:55.400Z,100009.00
2022-08-05T23:55:22.677Z,100001.62
2022-08-05T23:57:58.088Z,99995.41
